Terminal Aerodrome Forecast
Issued by NWS

Home | Current Version | Previous Version | Text Only | Print | Product List | Glossary On
Versions: 1 2 3 4 5 6 7 8 9
081
FTUS46 KSTO 242337
TAFSCK
TAF
KSCK 242337Z 2500/2524 27011KT P6SM SCT030 OVC050
      TEMPO 2500/2502 28012G18KT
     FM251500 30012KT P6SM SCT100=

USA.gov is the U.S. government's official web portal to all federal, state and local government web resources and services.